createdAt,value
2023-04-20T00:02:49.736Z,100.00
2023-04-20T00:06:02.173Z,100.00
2023-04-20T00:09:15.124Z,100.00
2023-04-20T00:12:27.877Z,100.00
2023-04-20T00:15:40.712Z,100.00
2023-04-20T00:18:55.474Z,100.00
2023-04-20T00:22:08.006Z,100.00
2023-04-20T00:25:20.360Z,100.00
2023-04-20T00:28:32.599Z,100.00
2023-04-20T00:31:45.232Z,100.00
2023-04-20T00:34:59.226Z,100.00
2023-04-20T00:38:11.374Z,100.00
2023-04-20T00:41:23.773Z,100.00
2023-04-20T00:44:37.801Z,100.00
2023-04-20T00:47:50.069Z,100.00
2023-04-20T00:51:02.758Z,100.00
2023-04-20T00:54:15.675Z,100.00
2023-04-20T00:57:28.377Z,100.00
2023-04-20T01:00:44.588Z,100.00
2023-04-20T01:03:57.264Z,100.00
2023-04-20T01:07:10.131Z,100.00
2023-04-20T01:10:22.445Z,100.00
2023-04-20T01:13:34.671Z,100.00
2023-04-20T01:16:47.505Z,100.00
2023-04-20T01:20:00.284Z,100.00
2023-04-20T01:23:13.153Z,100.00
2023-04-20T01:26:28.175Z,100.00
2023-04-20T01:29:40.969Z,100.00
2023-04-20T01:32:55.035Z,100.00
2023-04-20T01:36:08.638Z,100.00
2023-04-20T01:39:21.724Z,100.00
2023-04-20T01:42:34.157Z,100.00
2023-04-20T01:45:46.509Z,100.00
2023-04-20T01:48:58.754Z,100.00
2023-04-20T01:52:11.789Z,100.00
2023-04-20T01:55:25.541Z,100.00
2023-04-20T01:58:37.950Z,100.00
2023-04-20T02:01:50.386Z,100.00
2023-04-20T02:05:02.673Z,100.00
2023-04-20T02:08:14.971Z,100.00
2023-04-20T02:11:27.182Z,100.00
2023-04-20T02:14:39.082Z,100.00
2023-04-20T02:17:54.031Z,100.00
2023-04-20T02:21:06.324Z,100.00
2023-04-20T02:24:18.335Z,100.00
2023-04-20T02:27:30.482Z,100.00
2023-04-20T02:30:42.672Z,100.00
2023-04-20T02:33:56.720Z,100.00
2023-04-20T02:37:09.200Z,100.00
2023-04-20T02:40:21.549Z,100.00
2023-04-20T02:43:35.541Z,100.00
2023-04-20T02:46:48.738Z,100.00
2023-04-20T02:50:02.651Z,100.00
2023-04-20T02:53:16.537Z,100.00
2023-04-20T02:56:31.047Z,100.00
2023-04-20T02:59:46.553Z,100.00
2023-04-20T03:03:12.827Z,100.00
2023-04-20T03:06:26.849Z,100.00
2023-04-20T03:09:41.255Z,100.00
2023-04-20T03:12:55.261Z,100.00
2023-04-20T03:16:18.588Z,100.00
2023-04-20T03:19:35.552Z,100.00
2023-04-20T03:22:48.686Z,100.00
2023-04-20T03:26:01.957Z,100.00
2023-04-20T03:29:33.145Z,100.00
2023-04-20T03:32:46.719Z,100.00
2023-04-20T03:35:58.991Z,100.00
2023-04-20T03:39:11.678Z,100.00
2023-04-20T03:42:23.719Z,100.00
2023-04-20T03:45:36.302Z,100.00
2023-04-20T03:48:48.330Z,100.00
2023-04-20T03:52:00.503Z,100.00
2023-04-20T03:55:14.858Z,100.00
2023-04-20T03:58:29.016Z,100.00
2023-04-20T04:01:48.870Z,100.00
2023-04-20T04:05:01.893Z,100.00
2023-04-20T04:08:14.121Z,100.00
2023-04-20T04:11:27.017Z,100.00
2023-04-20T04:14:39.701Z,100.00
2023-04-20T04:17:53.081Z,100.00
2023-04-20T04:21:05.404Z,100.00
2023-04-20T04:24:19.807Z,100.00
2023-04-20T04:27:35.047Z,100.00
2023-04-20T04:30:47.555Z,100.00
2023-04-20T04:34:00.140Z,100.00
2023-04-20T04:37:14.633Z,100.00
2023-04-20T04:40:29.441Z,100.00
2023-04-20T04:43:42.450Z,100.00
2023-04-20T04:47:02.820Z,100.00
2023-04-20T04:50:17.911Z,100.00
2023-04-20T04:53:31.140Z,100.00
2023-04-20T04:56:43.243Z,100.00
2023-04-20T04:59:55.898Z,100.00
2023-04-20T05:03:08.235Z,100.00
2023-04-20T05:06:20.514Z,100.00
2023-04-20T05:09:33.796Z,100.00
2023-04-20T05:12:48.870Z,100.00
2023-04-20T05:16:01.334Z,100.00
2023-04-20T05:19:13.367Z,100.00
2023-04-20T05:22:25.805Z,100.00
2023-04-20T05:25:38.633Z,100.00
2023-04-20T05:28:51.549Z,100.00
2023-04-20T05:32:04.140Z,100.00
2023-04-20T05:35:18.105Z,100.00
2023-04-20T05:38:31.053Z,100.00
2023-04-20T05:41:43.556Z,100.00
2023-04-20T05:44:56.118Z,100.00
2023-04-20T05:48:08.719Z,100.00
2023-04-20T05:51:22.318Z,100.00
2023-04-20T05:54:34.501Z,100.00
2023-04-20T05:57:46.887Z,100.00
2023-04-20T06:00:59.082Z,100.00
2023-04-20T06:04:11.502Z,100.00
2023-04-20T06:07:24.118Z,100.00
2023-04-20T06:10:36.530Z,100.00
2023-04-20T06:13:48.706Z,100.00
2023-04-20T06:17:01.041Z,100.00
2023-04-20T06:20:17.527Z,100.00
2023-04-20T06:23:29.754Z,100.00
2023-04-20T06:26:42.227Z,100.00
2023-04-20T06:29:55.185Z,100.00
2023-04-20T06:33:08.763Z,100.00
2023-04-20T06:36:21.840Z,100.00
2023-04-20T06:39:34.013Z,100.00
2023-04-20T06:42:46.584Z,100.00
2023-04-20T06:45:58.783Z,100.00
2023-04-20T06:49:11.203Z,100.00
2023-04-20T06:52:24.213Z,100.00
2023-04-20T06:55:36.804Z,99.46
2023-04-20T06:58:49.504Z,100.00
2023-04-20T07:02:01.924Z,100.00
2023-04-20T07:05:15.683Z,100.00
2023-04-20T07:08:28.578Z,100.00
2023-04-20T07:11:42.128Z,100.00
2023-04-20T07:14:55.198Z,100.00
2023-04-20T07:18:07.422Z,100.00
2023-04-20T07:21:19.806Z,100.00
2023-04-20T07:24:32.191Z,100.00
2023-04-20T07:27:46.022Z,98.82
2023-04-20T07:30:59.722Z,94.04
2023-04-20T07:34:12.130Z,93.53
2023-04-20T07:37:26.852Z,94.10
2023-04-20T07:40:38.782Z,93.42
2023-04-20T07:43:50.889Z,92.90
2023-04-20T07:47:03.390Z,93.18
2023-04-20T07:50:17.122Z,91.39
2023-04-20T07:53:29.388Z,93.86
2023-04-20T07:56:41.416Z,93.70
2023-04-20T07:59:54.929Z,95.15
2023-04-20T08:03:07.110Z,93.93
2023-04-20T08:06:19.579Z,92.73
2023-04-20T08:09:31.721Z,95.24
2023-04-20T08:12:44.656Z,96.24
2023-04-20T08:15:56.839Z,96.51
2023-04-20T08:19:10.632Z,95.26
2023-04-20T08:22:24.598Z,98.13
2023-04-20T08:25:37.376Z,97.83
2023-04-20T08:28:49.625Z,99.69
2023-04-20T08:32:02.126Z,100.00
2023-04-20T08:35:15.491Z,99.98
2023-04-20T08:38:33.727Z,96.79
2023-04-20T08:41:42.304Z,97.26
2023-04-20T08:44:54.804Z,94.32
2023-04-20T08:48:13.167Z,94.94
2023-04-20T08:51:25.562Z,96.47
2023-04-20T08:54:42.824Z,96.25
2023-04-20T08:57:54.268Z,94.01
2023-04-20T09:01:06.881Z,93.49
2023-04-20T09:04:28.759Z,93.92
2023-04-20T09:07:41.233Z,93.51
2023-04-20T09:10:53.491Z,92.16
2023-04-20T09:14:12.805Z,90.58
2023-04-20T09:17:36.411Z,93.24
2023-04-20T09:20:49.938Z,89.56
2023-04-20T09:24:10.832Z,92.82
2023-04-20T09:27:27.032Z,91.48
2023-04-20T09:30:47.603Z,89.60
2023-04-20T09:34:08.288Z,87.51
2023-04-20T09:37:23.176Z,86.08
2023-04-20T09:40:36.267Z,87.58
2023-04-20T09:43:49.057Z,88.58
2023-04-20T09:47:01.581Z,89.44
2023-04-20T09:50:26.637Z,87.25
2023-04-20T09:53:32.442Z,86.49
2023-04-20T09:56:45.890Z,85.70
2023-04-20T10:00:02.372Z,85.13
2023-04-20T10:03:19.112Z,84.98
2023-04-20T10:06:34.276Z,87.19
2023-04-20T10:09:46.778Z,87.13
2023-04-20T10:13:00.819Z,89.15
2023-04-20T10:16:23.195Z,89.71
2023-04-20T10:19:47.777Z,89.54
2023-04-20T10:23:03.556Z,89.48
2023-04-20T10:26:16.888Z,87.55
2023-04-20T10:29:35.876Z,87.58
2023-04-20T10:32:48.793Z,87.25
2023-04-20T10:36:02.149Z,90.20
2023-04-20T10:39:27.961Z,89.66
2023-04-20T10:42:50.689Z,87.34
2023-04-20T10:46:02.956Z,86.74
2023-04-20T10:49:15.412Z,87.62
2023-04-20T10:52:40.967Z,87.89
2023-04-20T10:55:55.804Z,88.13
2023-04-20T10:59:16.464Z,87.67
2023-04-20T11:02:29.197Z,88.68
2023-04-20T11:05:41.975Z,89.58
2023-04-20T11:08:54.461Z,87.01
2023-04-20T11:12:14.426Z,86.36
2023-04-20T11:15:36.790Z,85.86
2023-04-20T11:18:59.414Z,85.75
2023-04-20T11:22:12.807Z,84.32
2023-04-20T11:25:25.000Z,84.64
2023-04-20T11:28:38.947Z,84.45
2023-04-20T11:31:58.429Z,84.76
2023-04-20T11:35:14.971Z,87.22
2023-04-20T11:38:37.974Z,84.65
2023-04-20T11:41:50.248Z,81.67
2023-04-20T11:45:03.514Z,79.24
2023-04-20T11:48:16.054Z,80.47
2023-04-20T11:51:28.506Z,79.38
2023-04-20T11:54:40.750Z,78.35
2023-04-20T11:57:52.869Z,75.69
2023-04-20T12:01:05.671Z,71.91
2023-04-20T12:04:18.437Z,74.81
2023-04-20T12:07:31.838Z,78.00
2023-04-20T12:10:47.309Z,78.01
2023-04-20T12:14:00.585Z,74.35
2023-04-20T12:17:12.966Z,77.02
2023-04-20T12:20:25.481Z,76.54
2023-04-20T12:23:37.676Z,76.03
2023-04-20T12:26:50.165Z,77.63
2023-04-20T12:30:02.409Z,77.34
2023-04-20T12:33:14.872Z,78.91
2023-04-20T12:36:27.906Z,76.01
2023-04-20T12:39:40.269Z,76.12
2023-04-20T12:42:52.295Z,70.33
2023-04-20T12:46:04.464Z,71.07
2023-04-20T12:49:17.274Z,69.58
2023-04-20T12:52:29.788Z,73.30
2023-04-20T12:55:42.620Z,72.97
2023-04-20T12:58:54.764Z,74.77
2023-04-20T13:02:06.978Z,72.55
2023-04-20T13:05:20.062Z,76.30
2023-04-20T13:08:32.364Z,79.29
2023-04-20T13:11:44.880Z,79.85
2023-04-20T13:14:57.497Z,78.44
2023-04-20T13:18:10.464Z,78.17
2023-04-20T13:21:22.939Z,81.88
2023-04-20T13:24:35.358Z,84.10
2023-04-20T13:27:47.680Z,80.93
2023-04-20T13:31:00.419Z,79.05
2023-04-20T13:34:13.045Z,77.48
2023-04-20T13:37:26.077Z,76.75
2023-04-20T13:40:39.342Z,75.32
2023-04-20T13:43:52.164Z,71.47
2023-04-20T13:47:04.485Z,73.03
2023-04-20T13:50:18.020Z,75.29
2023-04-20T13:53:30.182Z,74.04
2023-04-20T13:56:43.100Z,76.14
2023-04-20T13:59:54.995Z,75.53
2023-04-20T14:03:07.435Z,73.04
2023-04-20T14:06:19.963Z,74.52
2023-04-20T14:09:32.766Z,71.10
2023-04-20T14:12:44.887Z,72.75
2023-04-20T14:15:58.724Z,74.90
2023-04-20T14:19:11.149Z,74.69
2023-04-20T14:22:23.381Z,74.96
2023-04-20T14:25:35.680Z,76.92
2023-04-20T14:28:47.777Z,73.80
2023-04-20T14:32:00.240Z,73.15
2023-04-20T14:35:14.340Z,75.28
2023-04-20T14:38:26.784Z,76.57
2023-04-20T14:41:39.990Z,73.68
2023-04-20T14:44:52.291Z,75.16
2023-04-20T14:48:04.781Z,74.80
2023-04-20T14:51:18.962Z,76.11
2023-04-20T14:54:32.807Z,76.11
2023-04-20T14:57:45.284Z,76.17
2023-04-20T15:00:58.348Z,73.00
2023-04-20T15:04:11.120Z,76.63
2023-04-20T15:07:23.482Z,73.66
2023-04-20T15:10:37.889Z,73.09
2023-04-20T15:13:52.283Z,75.42
2023-04-20T15:17:04.384Z,75.31
2023-04-20T15:20:19.707Z,76.00
2023-04-20T15:23:32.189Z,75.46
2023-04-20T15:26:44.481Z,72.54
2023-04-20T15:29:58.338Z,75.11
2023-04-20T15:33:12.179Z,74.86
2023-04-20T15:36:25.807Z,75.43
2023-04-20T15:39:38.116Z,77.41
2023-04-20T15:42:50.323Z,75.81
2023-04-20T15:46:03.794Z,76.21
2023-04-20T15:49:16.346Z,75.01
2023-04-20T15:52:28.818Z,76.04
2023-04-20T15:55:44.201Z,76.44
2023-04-20T15:58:56.871Z,76.04
2023-04-20T16:02:09.242Z,76.60
2023-04-20T16:05:21.575Z,77.28
2023-04-20T16:08:33.765Z,78.66
2023-04-20T16:11:46.897Z,78.43
2023-04-20T16:14:58.941Z,78.21
2023-04-20T16:18:11.776Z,79.99
2023-04-20T16:21:24.665Z,79.82
2023-04-20T16:24:37.044Z,78.21
2023-04-20T16:27:49.166Z,78.59
2023-04-20T16:31:01.638Z,79.38
2023-04-20T16:34:14.646Z,81.96
2023-04-20T16:37:26.971Z,79.71
2023-04-20T16:40:39.585Z,81.28
2023-04-20T16:43:52.122Z,81.82
2023-04-20T16:47:05.394Z,81.81
2023-04-20T16:50:19.877Z,80.58
2023-04-20T16:53:32.736Z,82.22
2023-04-20T16:56:45.428Z,85.17
2023-04-20T16:59:57.725Z,82.33
2023-04-20T17:03:13.735Z,82.60
2023-04-20T17:06:26.347Z,81.11
2023-04-20T17:09:39.477Z,81.70
2023-04-20T17:12:52.308Z,83.03
2023-04-20T17:16:04.661Z,83.17
2023-04-20T17:19:17.116Z,81.99
2023-04-20T17:22:30.152Z,83.90
2023-04-20T17:25:43.888Z,82.36
2023-04-20T17:28:56.182Z,84.42
2023-04-20T17:32:09.565Z,84.60
2023-04-20T17:35:22.941Z,84.23
2023-04-20T17:38:37.006Z,84.45
2023-04-20T17:41:50.261Z,84.67
2023-04-20T17:45:02.442Z,84.60
2023-04-20T17:48:14.999Z,84.37
2023-04-20T17:51:28.003Z,85.08
2023-04-20T17:54:40.386Z,85.38
2023-04-20T17:57:53.026Z,84.96
2023-04-20T18:01:05.303Z,84.82
2023-04-20T18:07:19.766Z,85.72
2023-04-20T18:10:32.311Z,86.13
2023-04-20T18:13:45.381Z,86.35
2023-04-20T18:16:58.991Z,87.33
2023-04-20T18:20:14.324Z,87.85
2023-04-20T18:23:26.437Z,89.50
2023-04-20T18:26:40.273Z,90.02
2023-04-20T18:29:54.006Z,89.29
2023-04-20T18:39:07.768Z,89.38
2023-04-20T18:51:20.761Z,92.95
2023-04-20T18:54:33.262Z,93.58
2023-04-20T18:57:45.371Z,94.72
2023-04-20T19:00:57.909Z,95.15
2023-04-20T19:04:13.182Z,95.13
2023-04-20T19:07:25.762Z,94.94
2023-04-20T19:10:37.924Z,96.24
2023-04-20T19:13:50.044Z,95.42
2023-04-20T19:17:02.244Z,97.01
2023-04-20T19:20:17.626Z,96.61
2023-04-20T19:23:30.092Z,98.45
2023-04-20T19:26:42.278Z,97.76
2023-04-20T19:29:54.449Z,97.94
2023-04-20T19:33:06.659Z,98.83
2023-04-20T19:36:19.735Z,97.94
2023-04-20T19:39:33.643Z,97.41
2023-04-20T19:42:48.588Z,98.52
2023-04-20T19:46:01.787Z,98.02
2023-04-20T19:49:14.156Z,97.57
2023-04-20T19:52:26.580Z,97.07
2023-04-20T19:55:38.965Z,97.71
2023-04-20T19:58:51.201Z,97.67
2023-04-20T20:02:03.673Z,97.76
2023-04-20T20:05:17.106Z,98.65
2023-04-20T20:08:29.161Z,99.21
2023-04-20T20:11:43.745Z,100.00
2023-04-20T20:14:56.410Z,100.00
2023-04-20T20:18:10.910Z,100.00
2023-04-20T20:21:23.167Z,100.00
2023-04-20T20:24:35.601Z,100.00
2023-04-20T20:27:48.711Z,100.00
2023-04-20T20:31:01.836Z,100.00
2023-04-20T20:34:14.768Z,100.00
2023-04-20T20:37:27.221Z,100.00
2023-04-20T20:40:39.974Z,100.00
2023-04-20T20:43:53.041Z,100.00
2023-04-20T20:47:05.349Z,100.00
2023-04-20T20:50:20.301Z,100.00
2023-04-20T20:53:32.643Z,100.00
2023-04-20T20:56:44.580Z,100.00
2023-04-20T21:02:57.403Z,100.00
2023-04-20T21:06:10.221Z,100.00
2023-04-20T21:09:22.267Z,100.00
2023-04-20T21:12:34.317Z,100.00
2023-04-20T21:21:46.590Z,100.00
2023-04-20T21:24:58.616Z,100.00
2023-04-20T21:28:11.000Z,100.00
2023-04-20T21:31:23.053Z,100.00
2023-04-20T21:34:35.094Z,100.00
2023-04-20T21:37:47.169Z,100.00
2023-04-20T21:40:59.155Z,100.00
2023-04-20T21:44:11.482Z,100.00
2023-04-20T21:47:23.484Z,100.00
2023-04-20T21:50:35.740Z,100.00
2023-04-20T21:53:48.149Z,100.00
2023-04-20T21:57:00.173Z,100.00
2023-04-20T22:00:15.692Z,100.00
2023-04-20T22:03:29.895Z,100.00
2023-04-20T22:06:42.054Z,100.00
2023-04-20T22:09:54.196Z,100.00
2023-04-20T22:13:06.669Z,100.00
2023-04-20T22:16:20.937Z,100.00
2023-04-20T22:19:33.717Z,100.00
2023-04-20T22:22:46.544Z,100.00
2023-04-20T22:25:58.740Z,100.00
2023-04-20T22:29:11.069Z,100.00
2023-04-20T22:32:23.193Z,100.00
2023-04-20T22:35:35.429Z,100.00
2023-04-20T22:38:47.427Z,100.00
2023-04-20T22:41:59.539Z,100.00
2023-04-20T22:45:14.509Z,100.00
2023-04-20T22:48:26.820Z,100.00
2023-04-20T22:51:38.816Z,100.00
2023-04-20T22:54:52.061Z,100.00
2023-04-20T22:58:04.149Z,100.00
2023-04-20T23:01:16.191Z,100.00
2023-04-20T23:04:28.267Z,100.00
2023-04-20T23:07:41.625Z,100.00
2023-04-20T23:10:53.877Z,100.00
2023-04-20T23:14:06.460Z,100.00
2023-04-20T23:17:18.447Z,100.00
2023-04-20T23:20:31.219Z,100.00
2023-04-20T23:23:43.313Z,100.00
2023-04-20T23:26:55.277Z,100.00
2023-04-20T23:30:07.482Z,100.00
2023-04-20T23:33:19.362Z,100.00
2023-04-20T23:36:31.451Z,100.00
2023-04-20T23:39:45.550Z,100.00
2023-04-20T23:42:57.547Z,100.00
2023-04-20T23:46:09.701Z,100.00
2023-04-20T23:49:21.839Z,100.00
2023-04-20T23:52:34.179Z,100.00
2023-04-20T23:55:48.313Z,100.00
2023-04-20T23:59:00.427Z,100.00
